Time;durP1;ratioP1;P1;durP2;ratioP2;P2;SDS_P1;SDS_P2;PMS_P1;PMS_P2;Temp;Humidity;BMP_temperature;BMP_pressure;BME280_temperature;BME280_humidity;BME280_pressure;Samples;Min_cycle;Max_cycle;Signal;HPM_P1;HPM_P2
2024/01/08 00:01:47;;;;;;;1.00;1.00;;;1.50;99.90;;;;;;5015134;28;20249;-92
2024/01/08 00:04:13;;;;;;;0.30;0.30;;;1.40;99.90;;;;;;4999701;28;20217;-92
2024/01/08 00:06:39;;;;;;;0.40;0.40;;;1.30;99.90;;;;;;5034489;28;20229;-92
2024/01/08 00:09:05;;;;;;;0.60;0.60;;;1.20;99.90;;;;;;4999590;28;20713;-91
2024/01/08 00:11:30;;;;;;;0.47;0.47;;;1.10;99.90;;;;;;5040432;28;20239;-93
2024/01/08 00:13:56;;;;;;;0.60;0.60;;;1.00;99.90;;;;;;4993455;28;20305;-91
2024/01/08 00:16:22;;;;;;;1.10;0.60;;;1.00;99.90;;;;;;5034618;28;20306;-91
2024/01/08 00:18:48;;;;;;;0.70;0.70;;;1.00;99.90;;;;;;5031996;28;20218;-93
2024/01/08 00:21:13;;;;;;;0.60;0.60;;;1.00;99.90;;;;;;5042729;28;20293;-92
2024/01/08 00:23:39;;;;;;;0.33;0.33;;;1.00;99.90;;;;;;5041872;28;20226;-90
2024/01/08 00:26:05;;;;;;;0.80;0.80;;;0.90;99.90;;;;;;5041409;28;20760;-89
2024/01/08 00:28:31;;;;;;;0.70;0.70;;;0.90;99.90;;;;;;5042740;28;20225;-90
2024/01/08 00:30:57;;;;;;;0.70;0.70;;;0.90;99.90;;;;;;5009238;28;20223;-93
2024/01/08 00:33:22;;;;;;;0.33;0.33;;;0.80;99.90;;;;;;5041553;28;20191;-92
2024/01/08 00:35:48;;;;;;;0.73;0.73;;;0.80;99.90;;;;;;5018475;28;20256;-95
2024/01/08 00:38:14;;;;;;;0.57;0.57;;;0.90;99.90;;;;;;5026061;28;20698;-91
2024/01/08 00:40:39;;;;;;;0.67;0.67;;;0.90;99.90;;;;;;5030551;28;20237;-91
2024/01/08 00:43:05;;;;;;;0.60;0.60;;;0.80;99.90;;;;;;5027122;28;20219;-91
2024/01/08 00:45:32;;;;;;;1.80;1.70;;;0.80;99.90;;;;;;5034626;28;20591;-94
2024/01/08 00:47:57;;;;;;;0.63;0.63;;;0.80;99.90;;;;;;5034430;28;20187;-89
2024/01/08 00:50:23;;;;;;;1.23;1.10;;;0.80;99.90;;;;;;5031188;28;20671;-94
2024/01/08 00:52:49;;;;;;;0.40;0.40;;;0.70;99.90;;;;;;5026247;28;20587;-91
2024/01/08 00:55:15;;;;;;;0.50;0.50;;;0.70;99.90;;;;;;5039164;28;20223;-93
2024/01/08 00:57:41;;;;;;;2.30;2.10;;;0.70;99.90;;;;;;5042083;28;20225;-92
2024/01/08 01:00:08;;;;;;;1.27;1.17;;;0.80;99.90;;;;;;5042696;28;20186;-92
2024/01/08 01:02:35;;;;;;;0.30;0.30;;;0.70;99.90;;;;;;5026348;28;20220;-93
2024/01/08 01:05:01;;;;;;;0.97;0.97;;;0.70;99.90;;;;;;5030846;28;20218;-91
2024/01/08 01:07:27;;;;;;;1.17;1.07;;;0.70;99.90;;;;;;5041434;28;20237;-90
2024/01/08 01:09:54;;;;;;;0.90;0.83;;;0.70;99.90;;;;;;5007454;28;20230;-91
2024/01/08 01:12:20;;;;;;;0.67;0.67;;;0.70;99.90;;;;;;5042189;28;20182;-90
2024/01/08 01:14:45;;;;;;;0.30;0.30;;;0.70;99.90;;;;;;5042284;28;20650;-93
2024/01/08 01:17:11;;;;;;;0.87;0.87;;;0.70;99.90;;;;;;5041818;28;20813;-90
2024/01/08 01:19:37;;;;;;;0.70;0.70;;;0.70;99.90;;;;;;5041910;28;20222;-92
2024/01/08 01:22:03;;;;;;;0.40;0.40;;;0.70;99.90;;;;;;5025978;28;20622;-91
2024/01/08 01:24:29;;;;;;;4.53;1.40;;;0.70;99.90;;;;;;5026751;28;20205;-90
2024/01/08 01:26:55;;;;;;;0.67;0.67;;;0.80;99.90;;;;;;5033055;28;20655;-93
2024/01/08 01:29:20;;;;;;;0.40;0.40;;;0.80;99.90;;;;;;5042127;28;20235;-92
2024/01/08 01:31:46;;;;;;;1.27;0.90;;;0.90;99.90;;;;;;5009336;28;20694;-92
2024/01/08 01:34:12;;;;;;;1.03;1.03;;;0.90;99.90;;;;;;5040919;28;20752;-91
2024/01/08 01:36:39;;;;;;;1.00;1.00;;;0.90;99.90;;;;;;5025841;28;20183;-90
2024/01/08 01:39:05;;;;;;;0.30;0.30;;;0.90;99.90;;;;;;5041530;28;20272;-91
2024/01/08 01:41:32;;;;;;;0.40;0.40;;;0.80;99.90;;;;;;5027007;28;20246;-91
2024/01/08 01:43:58;;;;;;;0.50;0.50;;;0.80;99.90;;;;;;5042015;28;20309;-91
2024/01/08 01:46:44;;;;;;;0.40;0.40;;;0.70;99.90;;;;;;5025493;28;20755;-93
2024/01/08 01:49:14;;;;;;;0.30;0.30;;;0.70;99.90;;;;;;5025919;28;20230;-90
2024/01/08 01:51:42;;;;;;;1.03;1.03;;;0.70;99.90;;;;;;5041681;28;21010;-91
2024/01/08 01:54:09;;;;;;;1.30;1.20;;;0.60;99.90;;;;;;5000785;28;20234;-90
2024/01/08 01:56:36;;;;;;;1.13;1.13;;;0.60;99.90;;;;;;5042273;28;20229;-90
2024/01/08 01:59:03;;;;;;;0.67;0.67;;;0.50;99.90;;;;;;5042420;28;20582;-93
2024/01/08 02:01:29;;;;;;;0.57;0.57;;;0.40;99.90;;;;;;5041812;28;20215;-92
2024/01/08 02:03:56;;;;;;;0.40;0.40;;;0.30;99.90;;;;;;5039957;28;20217;-91
2024/01/08 02:06:26;;;;;;;0.30;0.30;;;0.20;99.90;;;;;;5041564;28;21081;-92
2024/01/08 02:08:53;;;;;;;0.63;0.63;;;0.20;99.90;;;;;;5041575;28;20558;-89
2024/01/08 02:11:19;;;;;;;0.43;0.43;;;0.10;99.90;;;;;;5041607;28;20770;-91
2024/01/08 02:13:46;;;;;;;0.73;0.70;;;0.00;99.90;;;;;;5025279;28;20334;-90
2024/01/08 02:16:11;;;;;;;0.70;0.70;;;-0.10;99.90;;;;;;5041034;28;20577;-91
2024/01/08 02:18:37;;;;;;;0.87;0.87;;;-0.20;99.90;;;;;;5008208;28;20190;-91
2024/01/08 02:21:03;;;;;;;0.30;0.30;;;-0.20;99.90;;;;;;5024348;28;20179;-91
2024/01/08 02:23:29;;;;;;;0.57;0.57;;;-0.30;99.90;;;;;;5040064;28;20219;-90
2024/01/08 02:25:55;;;;;;;0.30;0.30;;;-0.30;99.90;;;;;;5014805;28;20287;-91
2024/01/08 02:28:21;;;;;;;0.40;0.40;;;-0.40;99.90;;;;;;5008214;28;20313;-91
2024/01/08 02:30:47;;;;;;;1.17;1.07;;;-0.40;99.90;;;;;;4999413;28;20224;-91
2024/01/08 02:33:12;;;;;;;0.50;0.50;;;-0.40;99.90;;;;;;5040462;28;20187;-91
2024/01/08 02:35:38;;;;;;;0.60;0.60;;;-0.50;99.90;;;;;;5031133;28;20519;-91
2024/01/08 02:38:04;;;;;;;1.37;0.53;;;-0.50;99.90;;;;;;5004314;28;21128;-91
2024/01/08 02:40:29;;;;;;;0.30;0.30;;;-0.50;99.90;;;;;;5036755;28;21127;-92
2024/01/08 02:42:55;;;;;;;0.30;0.30;;;-0.40;99.90;;;;;;5006116;28;20219;-91
2024/01/08 02:45:21;;;;;;;0.40;0.40;;;-0.40;99.90;;;;;;5016027;28;20191;-90
2024/01/08 02:47:47;;;;;;;0.60;0.60;;;-0.40;99.90;;;;;;5024904;28;20229;-92
2024/01/08 02:50:13;;;;;;;0.30;0.30;;;-0.40;99.90;;;;;;4997045;28;20237;-90
2024/01/08 02:52:38;;;;;;;1.17;1.17;;;-0.40;99.90;;;;;;5006427;28;20292;-91
2024/01/08 02:55:05;;;;;;;1.73;1.67;;;-0.40;99.90;;;;;;5014562;28;20219;-92
2024/01/08 02:57:31;;;;;;;0.80;0.80;;;-0.30;99.90;;;;;;4999292;28;20195;-92
2024/01/08 02:59:57;;;;;;;0.30;0.30;;;-0.20;99.90;;;;;;5014913;28;20201;-89
2024/01/08 03:02:25;;;;;;;0.50;0.50;;;-0.20;99.90;;;;;;5024306;28;20272;-91
2024/01/08 03:04:52;;;;;;;0.77;0.77;;;-0.20;99.90;;;;;;5039574;28;20215;-91
2024/01/08 03:07:20;;;;;;;2.93;1.17;;;-0.10;99.90;;;;;;4998538;28;21019;-91
2024/01/08 03:09:47;;;;;;;2.23;2.10;;;-0.10;99.90;;;;;;5038488;28;20257;-91
2024/01/08 03:12:13;;;;;;;0.50;0.50;;;-0.10;99.90;;;;;;5042768;28;20186;-90
2024/01/08 03:14:39;;;;;;;0.87;0.87;;;0.00;99.90;;;;;;5043831;28;20636;-90
2024/01/08 03:17:05;;;;;;;0.53;0.53;;;0.00;99.90;;;;;;5017239;28;20701;-92
2024/01/08 03:19:31;;;;;;;0.50;0.50;;;0.00;99.90;;;;;;5034063;28;20222;-91
2024/01/08 03:22:00;;;;;;;0.40;0.40;;;0.00;99.90;;;;;;5042882;28;20633;-94
2024/01/08 03:24:26;;;;;;;1.07;1.07;;;0.00;99.90;;;;;;5043496;28;20194;-92
2024/01/08 03:26:52;;;;;;;1.13;1.13;;;0.00;99.90;;;;;;5042559;28;20183;-90
2024/01/08 03:29:18;;;;;;;2.80;1.07;;;0.00;99.90;;;;;;5016033;28;21010;-91
2024/01/08 03:31:44;;;;;;;0.40;0.40;;;0.00;99.90;;;;;;5018342;28;20235;-91
2024/01/08 03:34:10;;;;;;;1.70;1.60;;;0.00;99.90;;;;;;5025048;28;20218;-91
2024/01/08 03:36:36;;;;;;;2.60;1.67;;;0.10;99.90;;;;;;5026188;28;20849;-94
2024/01/08 03:39:02;;;;;;;0.70;0.70;;;0.10;99.90;;;;;;5019032;28;20206;-92
2024/01/08 03:41:28;;;;;;;3.07;1.00;;;0.10;99.90;;;;;;5032939;28;20252;-92
2024/01/08 03:43:53;;;;;;;1.13;1.13;;;0.10;99.90;;;;;;5033606;28;20222;-91
2024/01/08 03:46:19;;;;;;;1.17;0.93;;;0.20;99.90;;;;;;5028474;28;20282;-92
2024/01/08 03:48:45;;;;;;;0.83;0.83;;;0.20;99.90;;;;;;5029487;28;20980;-92
2024/01/08 03:51:11;;;;;;;0.57;0.57;;;0.20;99.90;;;;;;5037006;28;20222;-89
2024/01/08 03:53:37;;;;;;;2.20;0.97;;;0.20;99.90;;;;;;5031051;28;20282;-91
2024/01/08 03:56:04;;;;;;;1.13;0.90;;;0.20;99.90;;;;;;5045140;28;20260;-90
2024/01/08 03:58:30;;;;;;;0.40;0.40;;;0.20;99.90;;;;;;5063167;28;20682;-90
2024/01/08 04:00:55;;;;;;;1.33;0.83;;;0.30;99.90;;;;;;5030676;28;20210;-91
2024/01/08 04:03:22;;;;;;;0.50;0.50;;;0.30;99.90;;;;;;5020018;28;20195;-91
2024/01/08 04:05:48;;;;;;;1.27;1.27;;;0.20;99.90;;;;;;5045655;28;20195;-93
2024/01/08 04:08:14;;;;;;;0.50;0.50;;;0.20;99.90;;;;;;5045090;28;20312;-91
2024/01/08 04:10:39;;;;;;;0.40;0.40;;;0.20;99.90;;;;;;5028954;28;20230;-90
2024/01/08 04:13:05;;;;;;;0.73;0.73;;;0.20;99.90;;;;;;5017677;28;20305;-89
2024/01/08 04:15:31;;;;;;;0.70;0.70;;;0.20;99.90;;;;;;5022515;28;20183;-91
2024/01/08 04:17:57;;;;;;;1.77;0.80;;;0.20;99.90;;;;;;5031195;28;20183;-90
2024/01/08 04:20:23;;;;;;;0.60;0.60;;;0.30;99.90;;;;;;5028453;28;20249;-92
2024/01/08 04:22:50;;;;;;;0.30;0.30;;;0.20;99.90;;;;;;5018297;28;20214;-90
2024/01/08 04:25:16;;;;;;;1.90;1.40;;;0.30;99.90;;;;;;5028801;28;20227;-92
2024/01/08 04:27:43;;;;;;;0.73;0.73;;;0.20;99.90;;;;;;5028370;28;20249;-92
2024/01/08 04:30:09;;;;;;;0.60;0.60;;;0.30;99.90;;;;;;5029610;28;20205;-90
2024/01/08 04:32:36;;;;;;;1.40;1.30;;;0.30;99.90;;;;;;5017699;28;20226;-90
2024/01/08 04:35:02;;;;;;;0.77;0.77;;;0.30;99.90;;;;;;5062705;28;20357;-91
2024/01/08 04:37:28;;;;;;;1.80;1.80;;;0.40;99.90;;;;;;5020340;28;20292;-91
2024/01/08 04:39:54;;;;;;;1.87;1.57;;;0.40;99.90;;;;;;5045465;28;20686;-90
2024/01/08 04:42:20;;;;;;;1.50;1.20;;;0.40;99.90;;;;;;5028619;28;20190;-90
2024/01/08 04:44:49;;;;;;;1.33;0.50;;;0.40;99.90;;;;;;5028702;28;20195;-91
2024/01/08 04:47:15;;;;;;;0.40;0.40;;;0.40;99.90;;;;;;5060995;28;20702;-92
2024/01/08 04:49:40;;;;;;;0.30;0.30;;;0.50;99.90;;;;;;5045792;28;20245;-92
2024/01/08 04:52:07;;;;;;;1.47;1.47;;;0.50;99.90;;;;;;5030037;28;20309;-91
2024/01/08 04:54:33;;;;;;;0.50;0.50;;;0.50;99.90;;;;;;5029588;28;20222;-91
2024/01/08 04:56:58;;;;;;;0.50;0.50;;;0.60;99.90;;;;;;5029371;28;20190;-91
2024/01/08 04:59:24;;;;;;;0.77;0.77;;;0.60;99.90;;;;;;5028607;28;20255;-91
2024/01/08 05:01:51;;;;;;;0.57;0.57;;;0.70;99.90;;;;;;5019109;28;20222;-90
2024/01/08 05:04:17;;;;;;;14.20;0.97;;;0.70;99.90;;;;;;5026406;28;20245;-90
2024/01/08 05:06:44;;;;;;;0.80;0.80;;;0.80;99.90;;;;;;5024583;28;20578;-91
2024/01/08 05:09:10;;;;;;;0.60;0.50;;;0.90;99.90;;;;;;5035390;28;20211;-91
2024/01/08 05:11:36;;;;;;;0.30;0.30;;;1.00;99.90;;;;;;5026066;28;20242;-89
2024/01/08 05:14:05;;;;;;;0.33;0.33;;;0.90;99.90;;;;;;5018198;28;20241;-90
2024/01/08 05:16:32;;;;;;;0.30;0.30;;;0.90;99.90;;;;;;5041403;28;20698;-90
2024/01/08 05:18:58;;;;;;;0.47;0.47;;;0.80;99.90;;;;;;5057580;28;20260;-92
2024/01/08 05:21:23;;;;;;;0.30;0.30;;;0.80;99.90;;;;;;5023589;28;20186;-90
2024/01/08 05:23:50;;;;;;;0.27;0.27;;;0.80;99.90;;;;;;5034356;28;20626;-92
2024/01/08 05:26:15;;;;;;;0.30;0.30;;;0.80;99.90;;;;;;5017646;28;20263;-92
2024/01/08 05:28:41;;;;;;;0.37;0.37;;;0.80;99.90;;;;;;5025734;28;20240;-91
2024/01/08 05:31:07;;;;;;;0.30;0.30;;;0.80;99.90;;;;;;5025717;28;20226;-91
2024/01/08 05:33:33;;;;;;;0.30;0.30;;;0.80;99.90;;;;;;5016914;28;20197;-89
2024/01/08 05:35:59;;;;;;;0.30;0.30;;;0.80;99.90;;;;;;5017777;28;20281;-91
2024/01/08 05:38:25;;;;;;;0.70;0.70;;;0.80;99.90;;;;;;5025164;28;20215;-92
2024/01/08 05:40:51;;;;;;;0.33;0.33;;;0.70;99.90;;;;;;5024293;28;20219;-91
2024/01/08 05:43:17;;;;;;;0.40;0.40;;;0.70;99.90;;;;;;5049985;28;20222;-92
2024/01/08 05:45:43;;;;;;;0.73;0.73;;;0.70;99.90;;;;;;5057259;28;20218;-91
2024/01/08 05:48:09;;;;;;;0.40;0.40;;;0.60;99.90;;;;;;5024958;28;20649;-90
2024/01/08 05:50:34;;;;;;;0.63;0.63;;;0.60;99.90;;;;;;5016278;28;20296;-90
2024/01/08 05:53:00;;;;;;;1.50;1.33;;;0.50;99.90;;;;;;5048919;28;20268;-91
2024/01/08 05:55:26;;;;;;;0.33;0.33;;;0.60;99.90;;;;;;5024679;28;20263;-92
2024/01/08 05:57:52;;;;;;;0.30;0.30;;;0.50;99.90;;;;;;5025129;28;20221;-91
2024/01/08 06:00:18;;;;;;;0.30;0.30;;;0.50;99.90;;;;;;5025358;28;20179;-91
2024/01/08 06:02:44;;;;;;;0.57;0.57;;;0.50;99.90;;;;;;5041675;28;20215;-91
2024/01/08 06:05:10;;;;;;;0.20;0.20;;;0.50;99.90;;;;;;5032255;28;20211;-92
2024/01/08 06:07:36;;;;;;;1.50;1.43;;;0.50;99.90;;;;;;5025865;28;20226;-92
2024/01/08 06:10:03;;;;;;;1.07;0.50;;;0.50;99.90;;;;;;5033367;28;20245;-91
2024/01/08 06:12:29;;;;;;;0.40;0.40;;;0.40;99.90;;;;;;5013289;28;20207;-91
2024/01/08 06:14:55;;;;;;;0.80;0.80;;;0.40;99.90;;;;;;5016973;28;20198;-92
2024/01/08 06:17:21;;;;;;;0.30;0.30;;;0.40;99.90;;;;;;5025770;28;20223;-88
2024/01/08 06:19:48;;;;;;;0.67;0.67;;;0.30;99.90;;;;;;5024699;28;20226;-90
2024/01/08 06:22:17;;;;;;;2.73;1.00;;;0.20;99.90;;;;;;5025927;28;20276;-91
2024/01/08 06:24:43;;;;;;;0.40;0.40;;;0.20;99.90;;;;;;5033084;28;20226;-90
2024/01/08 06:27:09;;;;;;;3.20;0.60;;;0.10;99.90;;;;;;5019913;28;20658;-90
2024/01/08 06:29:35;;;;;;;0.30;0.30;;;0.00;99.90;;;;;;5016736;28;20231;-91
2024/01/08 06:32:00;;;;;;;0.43;0.43;;;-0.10;99.90;;;;;;5024932;28;20210;-90
2024/01/08 06:34:26;;;;;;;0.53;0.53;;;-0.10;99.90;;;;;;5016596;28;21457;-90
2024/01/08 06:36:52;;;;;;;0.33;0.33;;;-0.10;99.90;;;;;;5041405;28;20218;-90
2024/01/08 06:39:18;;;;;;;0.50;0.50;;;-0.20;99.90;;;;;;5026500;28;20198;-90
2024/01/08 06:41:43;;;;;;;0.40;0.40;;;-0.20;99.90;;;;;;5024682;28;20445;-93
2024/01/08 06:44:09;;;;;;;0.30;0.30;;;-0.20;99.90;;;;;;5027568;28;20241;-91
2024/01/08 06:46:35;;;;;;;0.33;0.33;;;-0.40;99.90;;;;;;5063674;28;20473;-91
2024/01/08 06:49:02;;;;;;;0.90;0.90;;;-0.50;99.90;;;;;;5032117;28;20234;-90
2024/01/08 06:51:27;;;;;;;2.00;1.00;;;-0.50;99.90;;;;;;5031306;28;20181;-91
2024/01/08 06:53:53;;;;;;;0.60;0.60;;;-0.50;99.90;;;;;;5031676;28;20660;-91
2024/01/08 06:56:19;;;;;;;0.87;0.57;;;-0.60;99.90;;;;;;5044650;28;20774;-88
2024/01/08 06:58:45;;;;;;;0.77;0.77;;;-0.60;99.90;;;;;;5027032;28;20222;-87
2024/01/08 07:01:11;;;;;;;0.30;0.30;;;-0.60;99.90;;;;;;5026065;28;20275;-89
2024/01/08 07:03:36;;;;;;;0.40;0.40;;;-0.50;99.90;;;;;;5014729;28;20205;-86
2024/01/08 07:06:02;;;;;;;0.27;0.27;;;-0.40;99.90;;;;;;5040813;28;20189;-90
2024/01/08 07:08:28;;;;;;;0.60;0.60;;;-0.40;99.90;;;;;;5025718;28;20223;-88
2024/01/08 07:10:54;;;;;;;0.73;0.73;;;-0.30;99.90;;;;;;5016305;28;21015;-88
2024/01/08 07:13:19;;;;;;;0.40;0.40;;;-0.30;99.90;;;;;;5042618;28;20233;-88
2024/01/08 07:15:48;;;;;;;0.40;0.40;;;-0.20;99.90;;;;;;5027718;28;20222;-88
2024/01/08 07:18:15;;;;;;;0.83;0.83;;;-0.20;99.90;;;;;;5017600;28;20201;-90
2024/01/08 07:20:42;;;;;;;0.73;0.73;;;-0.10;99.90;;;;;;5026872;28;20241;-90
2024/01/08 07:23:09;;;;;;;0.60;0.60;;;-0.10;99.90;;;;;;5059317;28;20575;-89
2024/01/08 07:25:39;;;;;;;0.47;0.47;;;-0.10;99.90;;;;;;5058841;28;20729;-90
2024/01/08 07:28:09;;;;;;;0.40;0.40;;;-0.10;99.90;;;;;;5026578;28;20229;-90
2024/01/08 07:30:36;;;;;;;0.67;0.63;;;0.00;99.90;;;;;;5058484;28;20211;-88
2024/01/08 07:33:02;;;;;;;0.30;0.30;;;0.00;99.90;;;;;;5024251;28;20183;-88
2024/01/08 07:35:28;;;;;;;1.30;0.93;;;-0.10;99.90;;;;;;5040696;28;20222;-90
2024/01/08 07:37:57;;;;;;;0.97;0.97;;;-0.10;99.90;;;;;;5015976;28;20452;-87
2024/01/08 07:40:24;;;;;;;0.67;0.67;;;-0.10;99.90;;;;;;5030712;28;20238;-88
2024/01/08 07:42:55;;;;;;;1.23;1.23;;;0.00;99.90;;;;;;5041077;28;20734;-93
2024/01/08 07:45:26;;;;;;;0.33;0.33;;;0.00;99.90;;;;;;5026000;28;20183;-90
2024/01/08 07:47:52;;;;;;;0.30;0.30;;;0.10;99.90;;;;;;5056433;28;20264;-90
2024/01/08 07:50:21;;;;;;;0.40;0.40;;;0.10;99.90;;;;;;5011941;28;20235;-90
2024/01/08 07:52:47;;;;;;;0.53;0.53;;;0.20;99.90;;;;;;5015225;28;20227;-89
2024/01/08 07:55:13;;;;;;;0.47;0.47;;;0.20;99.90;;;;;;5005932;28;20295;-92
2024/01/08 07:57:39;;;;;;;0.30;0.30;;;0.10;99.90;;;;;;5038703;28;20698;-90
2024/01/08 08:00:11;;;;;;;0.30;0.30;;;0.10;99.90;;;;;;5021365;28;20225;-90
2024/01/08 08:02:40;;;;;;;0.40;0.40;;;0.20;99.90;;;;;;5021732;28;20302;-89
2024/01/08 08:05:06;;;;;;;0.33;0.33;;;0.30;99.90;;;;;;5019496;28;20249;-89
2024/01/08 08:07:32;;;;;;;0.57;0.57;;;0.30;99.90;;;;;;5013859;28;20309;-89
2024/01/08 08:09:58;;;;;;;0.30;0.30;;;0.40;99.90;;;;;;5053842;28;20226;-88
2024/01/08 08:12:24;;;;;;;0.30;0.30;;;0.50;99.90;;;;;;5022616;28;20221;-87
2024/01/08 08:14:50;;;;;;;1.03;0.90;;;0.50;99.90;;;;;;5017027;28;20182;-88
2024/01/08 08:17:16;;;;;;;0.33;0.33;;;0.60;99.90;;;;;;5057188;28;20223;-89
2024/01/08 08:19:42;;;;;;;0.50;0.50;;;0.60;99.90;;;;;;5005703;28;20338;-88
2024/01/08 08:22:11;;;;;;;0.47;0.47;;;0.60;99.90;;;;;;5019975;28;20227;-87
2024/01/08 08:24:39;;;;;;;0.40;0.40;;;0.60;99.90;;;;;;4988467;28;20651;-87
2024/01/08 08:27:05;;;;;;;0.37;0.37;;;0.60;99.90;;;;;;5005121;28;20195;-88
2024/01/08 08:29:32;;;;;;;0.27;0.27;;;0.60;99.90;;;;;;5039560;28;20249;-89
2024/01/08 08:31:58;;;;;;;0.30;0.30;;;0.50;99.90;;;;;;5016912;28;20847;-88
2024/01/08 08:34:24;;;;;;;0.40;0.40;;;0.50;99.90;;;;;;5040809;28;20322;-89
2024/01/08 08:36:49;;;;;;;1.80;1.07;;;0.60;99.90;;;;;;5024490;28;20268;-88
2024/01/08 08:39:18;;;;;;;0.97;0.97;;;0.50;99.90;;;;;;5035208;28;20580;-89
2024/01/08 08:41:45;;;;;;;0.40;0.40;;;0.50;99.90;;;;;;5022117;28;20241;-91
2024/01/08 08:44:12;;;;;;;0.37;0.37;;;0.60;99.90;;;;;;5037469;28;20693;-88
2024/01/08 08:46:39;;;;;;;0.43;0.43;;;0.60;99.90;;;;;;5020344;28;20230;-88
2024/01/08 08:49:06;;;;;;;0.30;0.30;;;0.60;99.90;;;;;;5053338;28;20562;-90
2024/01/08 08:51:35;;;;;;;0.30;0.30;;;0.70;99.90;;;;;;5014771;28;20187;-87
2024/01/08 08:54:03;;;;;;;0.50;0.50;;;0.70;99.90;;;;;;5022196;28;20238;-89
2024/01/08 08:56:33;;;;;;;0.40;0.40;;;0.70;99.90;;;;;;5020393;28;20233;-91
2024/01/08 08:59:00;;;;;;;0.30;0.30;;;0.70;99.90;;;;;;5011808;28;20234;-88
2024/01/08 09:01:27;;;;;;;0.63;0.63;;;0.70;99.90;;;;;;5054313;28;20226;-86
2024/01/08 09:03:52;;;;;;;0.60;0.60;;;0.80;99.90;;;;;;5020606;28;20329;-87
2024/01/08 09:06:27;;;;;;;0.30;0.30;;;0.80;99.90;;;;;;5014709;28;20193;-88
2024/01/08 09:08:57;;;;;;;0.50;0.50;;;0.80;99.90;;;;;;5012265;28;20714;-87
2024/01/08 09:11:23;;;;;;;0.73;0.73;;;0.90;99.90;;;;;;5007667;28;20341;-88
2024/01/08 09:13:49;;;;;;;2.73;2.43;;;0.90;99.90;;;;;;5013697;28;20699;-88
2024/01/08 09:16:15;;;;;;;0.40;0.40;;;0.90;99.90;;;;;;5014440;28;20621;-87
2024/01/08 09:18:42;;;;;;;0.30;0.30;;;1.00;99.90;;;;;;5013727;28;20560;-89
2024/01/08 09:21:11;;;;;;;0.40;0.40;;;1.00;99.90;;;;;;5005445;28;20281;-87
2024/01/08 09:23:39;;;;;;;0.57;0.57;;;1.00;99.90;;;;;;5023443;28;20218;-87
2024/01/08 09:26:05;;;;;;;0.57;0.57;;;1.00;99.90;;;;;;5045893;28;20237;-87
2024/01/08 09:28:32;;;;;;;0.60;0.60;;;1.00;99.90;;;;;;5023291;28;20671;-87
2024/01/08 09:31:00;;;;;;;0.30;0.30;;;1.10;99.90;;;;;;5021732;28;20230;-89
2024/01/08 09:33:26;;;;;;;0.40;0.40;;;1.10;99.90;;;;;;5039638;28;20194;-88
2024/01/08 09:35:52;;;;;;;0.33;0.33;;;1.10;99.90;;;;;;5030260;28;20216;-88
2024/01/08 09:38:18;;;;;;;0.40;0.40;;;1.20;99.90;;;;;;5022965;28;20246;-87
2024/01/08 09:40:44;;;;;;;0.80;0.80;;;1.20;99.90;;;;;;5013625;28;20239;-89
2024/01/08 09:43:14;;;;;;;0.30;0.30;;;1.20;99.90;;;;;;5022055;28;20214;-89
2024/01/08 09:46:11;;;;;;;0.30;0.30;;;1.30;99.90;;;;;;5055182;28;20253;-88
2024/01/08 09:48:37;;;;;;;0.40;0.40;;;1.30;99.90;;;;;;5007755;28;20232;-87
2024/01/08 09:51:04;;;;;;;0.63;0.63;;;1.30;99.90;;;;;;5038250;28;20720;-89
2024/01/08 09:53:32;;;;;;;0.30;0.30;;;1.30;99.90;;;;;;5056689;28;20242;-89
2024/01/08 09:55:59;;;;;;;0.30;0.30;;;1.40;99.90;;;;;;5030220;28;20218;-89
2024/01/08 09:58:26;;;;;;;0.40;0.40;;;1.40;99.90;;;;;;5030358;28;20231;-85
2024/01/08 10:00:52;;;;;;;0.30;0.30;;;1.40;99.90;;;;;;5022472;28;20246;-88
2024/01/08 10:03:19;;;;;;;0.30;0.30;;;1.50;99.90;;;;;;5023258;28;20186;-87
2024/01/08 10:05:44;;;;;;;1.03;1.03;;;1.50;99.90;;;;;;5022851;28;20214;-87
2024/01/08 10:08:10;;;;;;;0.40;0.40;;;1.50;99.90;;;;;;5022900;28;20222;-88
2024/01/08 10:10:36;;;;;;;0.67;0.67;;;1.50;99.90;;;;;;5022584;28;20244;-90
2024/01/08 10:13:02;;;;;;;0.50;0.50;;;1.50;99.90;;;;;;5031211;28;20226;-88
2024/01/08 10:15:28;;;;;;;0.40;0.40;;;1.50;99.90;;;;;;5013036;28;20186;-91
2024/01/08 10:17:55;;;;;;;0.40;0.40;;;1.50;99.90;;;;;;5022606;28;20197;-86
2024/01/08 10:20:21;;;;;;;0.33;0.33;;;1.50;99.90;;;;;;5019304;28;20671;-88
2024/01/08 10:23:06;;;;;;;0.40;0.40;;;1.50;99.90;;;;;;5001274;28;20207;-88
2024/01/08 10:25:34;;;;;;;0.40;0.40;;;1.50;99.90;;;;;;5019090;28;20231;-89
2024/01/08 10:28:00;;;;;;;0.43;0.43;;;1.50;99.90;;;;;;4995939;28;20933;-91
2024/01/08 10:30:26;;;;;;;0.33;0.33;;;1.50;99.90;;;;;;4994560;28;20215;-89
2024/01/08 10:32:56;;;;;;;0.60;0.60;;;1.50;99.90;;;;;;5003404;28;20530;-90
2024/01/08 10:35:22;;;;;;;3.80;1.90;;;1.50;99.90;;;;;;5031476;28;20219;-90
2024/01/08 10:37:50;;;;;;;0.30;0.30;;;1.50;99.90;;;;;;5020056;28;20211;-87
2024/01/08 10:40:16;;;;;;;1.90;0.77;;;1.50;99.90;;;;;;5015094;28;20222;-91
2024/01/08 10:42:44;;;;;;;0.43;0.43;;;1.60;99.90;;;;;;5037945;28;20813;-90
2024/01/08 10:45:10;;;;;;;4.03;1.07;;;1.50;99.90;;;;;;5014266;28;20217;-87
2024/01/08 10:47:42;;;;;;;0.40;0.40;;;1.50;99.90;;;;;;5037946;28;20481;-91
2024/01/08 10:50:09;;;;;;;0.30;0.30;;;1.60;99.90;;;;;;5055223;28;20291;-86
2024/01/08 10:52:42;;;;;;;0.30;0.30;;;1.50;99.90;;;;;;5021835;28;20252;-88
2024/01/08 10:55:10;;;;;;;1.20;1.10;;;1.50;99.90;;;;;;5054495;28;20234;-91
2024/01/08 10:57:50;;;;;;;2.10;0.93;;;1.50;99.90;;;;;;5022077;28;20646;-89
2024/01/08 11:00:17;;;;;;;0.80;0.80;;;1.50;99.90;;;;;;5023963;28;20194;-89
2024/01/08 11:02:44;;;;;;;0.33;0.33;;;1.60;99.90;;;;;;5054319;28;20215;-87
2024/01/08 11:05:10;;;;;;;1.13;1.13;;;1.50;99.90;;;;;;5036195;28;20307;-89
2024/01/08 11:07:40;;;;;;;0.47;0.47;;;1.50;99.90;;;;;;5037919;28;20234;-89
2024/01/08 11:10:07;;;;;;;0.50;0.50;;;1.50;99.90;;;;;;5022161;28;20230;-89
2024/01/08 11:12:36;;;;;;;0.30;0.30;;;1.50;99.90;;;;;;5038855;28;20191;-91
2024/01/08 11:15:03;;;;;;;0.30;0.30;;;1.60;99.90;;;;;;5028699;28;20206;-89
2024/01/08 11:17:32;;;;;;;0.47;0.47;;;1.50;99.90;;;;;;5054907;28;20218;-91
2024/01/08 11:19:59;;;;;;;0.30;0.30;;;1.50;99.90;;;;;;5029193;28;20223;-87
2024/01/08 11:22:25;;;;;;;0.50;0.50;;;1.60;99.90;;;;;;5020887;28;20222;-88
2024/01/08 11:25:00;;;;;;;0.37;0.37;;;1.60;99.90;;;;;;5027690;28;20667;-89
2024/01/08 11:27:26;;;;;;;0.40;0.40;;;1.50;99.90;;;;;;5054754;28;20190;-90
2024/01/08 11:29:59;;;;;;;0.40;0.40;;;1.50;99.90;;;;;;5020356;28;20218;-90
2024/01/08 11:32:53;;;;;;;0.30;0.30;;;1.60;99.90;;;;;;5015923;28;20282;-90
2024/01/08 11:35:20;;;;;;;0.67;0.67;;;1.60;99.90;;;;;;5041368;28;20249;-89
2024/01/08 11:38:12;;;;;;;0.90;0.90;;;1.70;99.90;;;;;;5003265;28;20219;-88
2024/01/08 11:40:40;;;;;;;0.30;0.30;;;1.70;99.90;;;;;;5006328;28;20237;-87
2024/01/08 11:43:08;;;;;;;0.43;0.43;;;1.70;99.90;;;;;;5027193;28;20214;-89
2024/01/08 11:45:34;;;;;;;0.40;0.40;;;1.80;99.90;;;;;;5040759;28;20257;-89
2024/01/08 11:48:02;;;;;;;0.50;0.50;;;1.70;99.90;;;;;;5008546;28;20285;-88
2024/01/08 11:50:28;;;;;;;0.40;0.40;;;1.70;99.90;;;;;;5057516;28;20234;-88
2024/01/08 11:52:58;;;;;;;0.40;0.40;;;1.80;99.90;;;;;;5016469;28;20256;-88
2024/01/08 11:55:25;;;;;;;0.40;0.40;;;1.70;99.90;;;;;;5057014;28;20242;-88
2024/01/08 11:57:51;;;;;;;0.40;0.40;;;1.80;99.90;;;;;;5013691;28;20226;-88
2024/01/08 12:00:19;;;;;;;0.57;0.57;;;1.90;99.90;;;;;;5016918;28;20191;-89
2024/01/08 12:02:45;;;;;;;0.60;0.60;;;1.80;99.90;;;;;;5057633;28;20218;-88
2024/01/08 12:05:11;;;;;;;0.43;0.43;;;1.70;99.90;;;;;;5023150;28;20257;-90
2024/01/08 12:07:41;;;;;;;0.40;0.40;;;1.70;99.90;;;;;;5032592;28;20238;-89
2024/01/08 12:10:08;;;;;;;0.60;0.60;;;1.60;99.90;;;;;;5038364;28;20654;-87
2024/01/08 12:12:35;;;;;;;0.40;0.40;;;1.50;99.90;;;;;;5025157;28;20551;-87
2024/01/08 12:15:01;;;;;;;0.30;0.30;;;1.50;99.90;;;;;;5024244;28;20977;-87
2024/01/08 12:17:27;;;;;;;0.57;0.53;;;1.50;99.90;;;;;;5030364;28;20227;-86
2024/01/08 12:19:55;;;;;;;0.83;0.63;;;1.50;99.90;;;;;;5022801;28;20222;-90
2024/01/08 12:22:23;;;;;;;0.40;0.40;;;1.60;99.90;;;;;;5023247;28;20276;-88
2024/01/08 12:24:51;;;;;;;0.30;0.30;;;1.60;99.90;;;;;;5039919;28;20284;-86
2024/01/08 12:27:19;;;;;;;0.60;0.60;;;1.60;99.90;;;;;;5024234;28;20199;-89
2024/01/08 12:29:46;;;;;;;0.40;0.40;;;1.70;99.90;;;;;;5037656;28;20238;-87
2024/01/08 12:32:20;;;;;;;0.50;0.50;;;1.80;99.90;;;;;;5055904;28;20587;-88
2024/01/08 12:34:47;;;;;;;2.43;1.00;;;1.80;99.90;;;;;;5039078;28;20227;-90
2024/01/08 12:37:14;;;;;;;0.30;0.30;;;1.70;99.90;;;;;;5023139;28;20272;-86
2024/01/08 12:39:40;;;;;;;0.50;0.50;;;1.60;99.90;;;;;;5023418;28;20222;-87
2024/01/08 12:42:17;;;;;;;0.30;0.30;;;1.60;99.90;;;;;;5037534;28;20191;-89
2024/01/08 12:44:44;;;;;;;0.97;0.97;;;1.60;99.90;;;;;;5032866;28;20214;-87
2024/01/08 12:47:10;;;;;;;0.30;0.30;;;1.60;99.90;;;;;;5014032;28;20254;-88
2024/01/08 12:49:36;;;;;;;0.53;0.53;;;1.60;3.70;;;;;;5023714;28;20329;-87
2024/01/08 12:52:03;;;;;;;0.90;0.60;;;1.60;24.50;;;;;;5015615;28;20330;-89
2024/01/08 12:54:36;;;;;;;0.47;0.47;;;1.60;1.00;;;;;;5022723;28;20239;-86